sensor_id;sensor_type;location;lat;lon;timestamp;P1;durP1;ratioP1;P2;durP2;ratioP2
77589;SDS011;66746;51.328;12.332;2023-06-01T00:00:25;3.63;;;3.33;;
77589;SDS011;66746;51.328;12.332;2023-06-01T00:02:53;4.70;;;3.10;;
77589;SDS011;66746;51.328;12.332;2023-06-01T00:05:20;3.28;;;2.95;;
77589;SDS011;66746;51.328;12.332;2023-06-01T00:07:46;4.95;;;3.80;;
77589;SDS011;66746;51.328;12.332;2023-06-01T00:10:12;4.47;;;3.25;;
77589;SDS011;66746;51.328;12.332;2023-06-01T00:12:39;5.68;;;2.58;;
77589;SDS011;66746;51.328;12.332;2023-06-01T00:15:06;2.95;;;2.60;;
77589;SDS011;66746;51.328;12.332;2023-06-01T00:17:32;3.58;;;2.30;;
77589;SDS011;66746;51.328;12.332;2023-06-01T00:20:00;5.32;;;3.08;;
77589;SDS011;66746;51.328;12.332;2023-06-01T00:22:26;4.97;;;3.45;;
77589;SDS011;66746;51.328;12.332;2023-06-01T00:24:53;5.80;;;3.75;;
77589;SDS011;66746;51.328;12.332;2023-06-01T00:27:19;3.13;;;2.08;;
77589;SDS011;66746;51.328;12.332;2023-06-01T00:29:45;5.07;;;2.40;;
77589;SDS011;66746;51.328;12.332;2023-06-01T00:32:12;3.03;;;2.30;;
77589;SDS011;66746;51.328;12.332;2023-06-01T00:34:38;4.18;;;3.42;;
77589;SDS011;66746;51.328;12.332;2023-06-01T00:37:06;4.25;;;2.13;;
77589;SDS011;66746;51.328;12.332;2023-06-01T00:39:32;3.60;;;2.95;;
77589;SDS011;66746;51.328;12.332;2023-06-01T00:41:58;4.03;;;3.58;;
77589;SDS011;66746;51.328;12.332;2023-06-01T00:44:25;3.40;;;2.33;;
77589;SDS011;66746;51.328;12.332;2023-06-01T00:46:51;6.38;;;4.35;;
77589;SDS011;66746;51.328;12.332;2023-06-01T00:49:18;3.95;;;3.15;;
77589;SDS011;66746;51.328;12.332;2023-06-01T00:51:45;4.18;;;3.80;;
77589;SDS011;66746;51.328;12.332;2023-06-01T00:54:12;4.00;;;3.30;;
77589;SDS011;66746;51.328;12.332;2023-06-01T00:56:39;5.00;;;3.15;;
77589;SDS011;66746;51.328;12.332;2023-06-01T00:59:06;5.18;;;3.80;;
77589;SDS011;66746;51.328;12.332;2023-06-01T01:01:32;6.05;;;4.28;;
77589;SDS011;66746;51.328;12.332;2023-06-01T01:03:58;3.83;;;3.17;;
77589;SDS011;66746;51.328;12.332;2023-06-01T01:06:27;4.15;;;3.75;;
77589;SDS011;66746;51.328;12.332;2023-06-01T01:08:57;4.75;;;3.33;;
77589;SDS011;66746;51.328;12.332;2023-06-01T01:11:28;4.20;;;3.80;;
77589;SDS011;66746;51.328;12.332;2023-06-01T01:14:01;4.30;;;3.80;;
77589;SDS011;66746;51.328;12.332;2023-06-01T01:16:49;4.88;;;3.35;;
77589;SDS011;66746;51.328;12.332;2023-06-01T01:19:22;3.20;;;2.42;;
77589;SDS011;66746;51.328;12.332;2023-06-01T01:21:57;4.78;;;3.78;;
77589;SDS011;66746;51.328;12.332;2023-06-01T01:27:10;3.47;;;2.00;;
77589;SDS011;66746;51.328;12.332;2023-06-01T01:29:38;4.57;;;4.18;;
77589;SDS011;66746;51.328;12.332;2023-06-01T01:32:05;4.05;;;2.78;;
77589;SDS011;66746;51.328;12.332;2023-06-01T01:34:32;3.97;;;3.35;;
77589;SDS011;66746;51.328;12.332;2023-06-01T01:36:59;3.95;;;3.33;;
77589;SDS011;66746;51.328;12.332;2023-06-01T01:39:26;4.78;;;4.22;;
77589;SDS011;66746;51.328;12.332;2023-06-01T01:41:53;5.97;;;4.15;;
77589;SDS011;66746;51.328;12.332;2023-06-01T01:44:19;4.88;;;3.92;;
77589;SDS011;66746;51.328;12.332;2023-06-01T01:46:50;4.85;;;3.80;;
77589;SDS011;66746;51.328;12.332;2023-06-01T01:49:20;4.43;;;3.67;;
77589;SDS011;66746;51.328;12.332;2023-06-01T01:51:50;5.20;;;4.32;;
77589;SDS011;66746;51.328;12.332;2023-06-01T01:54:18;7.10;;;5.65;;
77589;SDS011;66746;51.328;12.332;2023-06-01T01:56:44;5.88;;;2.72;;
77589;SDS011;66746;51.328;12.332;2023-06-01T01:59:15;6.38;;;4.32;;
77589;SDS011;66746;51.328;12.332;2023-06-01T02:01:42;5.57;;;4.22;;
77589;SDS011;66746;51.328;12.332;2023-06-01T02:04:10;5.75;;;4.30;;
77589;SDS011;66746;51.328;12.332;2023-06-01T02:06:37;3.80;;;3.30;;
77589;SDS011;66746;51.328;12.332;2023-06-01T02:09:03;5.13;;;4.68;;
77589;SDS011;66746;51.328;12.332;2023-06-01T02:11:30;5.43;;;4.57;;
77589;SDS011;66746;51.328;12.332;2023-06-01T02:13:57;4.03;;;2.65;;
77589;SDS011;66746;51.328;12.332;2023-06-01T02:16:23;3.30;;;3.03;;
77589;SDS011;66746;51.328;12.332;2023-06-01T02:18:50;4.55;;;4.05;;
77589;SDS011;66746;51.328;12.332;2023-06-01T02:21:19;4.55;;;1.75;;
77589;SDS011;66746;51.328;12.332;2023-06-01T02:23:45;4.15;;;3.75;;
77589;SDS011;66746;51.328;12.332;2023-06-01T02:26:12;7.15;;;2.67;;
77589;SDS011;66746;51.328;12.332;2023-06-01T02:28:38;4.30;;;2.70;;
77589;SDS011;66746;51.328;12.332;2023-06-01T02:31:05;3.83;;;2.95;;
77589;SDS011;66746;51.328;12.332;2023-06-01T02:33:31;5.65;;;3.67;;
77589;SDS011;66746;51.328;12.332;2023-06-01T02:35:58;5.05;;;3.58;;
77589;SDS011;66746;51.328;12.332;2023-06-01T02:38:26;5.53;;;4.03;;
77589;SDS011;66746;51.328;12.332;2023-06-01T02:40:52;5.63;;;3.67;;
77589;SDS011;66746;51.328;12.332;2023-06-01T02:43:19;4.53;;;3.90;;
77589;SDS011;66746;51.328;12.332;2023-06-01T02:45:45;5.55;;;3.13;;
77589;SDS011;66746;51.328;12.332;2023-06-01T02:48:12;8.77;;;3.92;;
77589;SDS011;66746;51.328;12.332;2023-06-01T02:50:39;3.92;;;3.50;;
77589;SDS011;66746;51.328;12.332;2023-06-01T02:53:05;4.50;;;3.28;;
77589;SDS011;66746;51.328;12.332;2023-06-01T02:55:33;4.35;;;2.70;;
77589;SDS011;66746;51.328;12.332;2023-06-01T02:58:05;4.38;;;2.80;;
77589;SDS011;66746;51.328;12.332;2023-06-01T03:00:42;5.07;;;3.85;;
77589;SDS011;66746;51.328;12.332;2023-06-01T03:03:09;4.00;;;3.47;;
77589;SDS011;66746;51.328;12.332;2023-06-01T03:05:36;4.47;;;1.98;;
77589;SDS011;66746;51.328;12.332;2023-06-01T03:08:21;5.80;;;3.55;;
77589;SDS011;66746;51.328;12.332;2023-06-01T03:10:49;3.85;;;3.42;;
77589;SDS011;66746;51.328;12.332;2023-06-01T03:13:23;5.72;;;2.70;;
77589;SDS011;66746;51.328;12.332;2023-06-01T03:15:49;6.13;;;3.53;;
77589;SDS011;66746;51.328;12.332;2023-06-01T03:18:16;6.38;;;4.18;;
77589;SDS011;66746;51.328;12.332;2023-06-01T03:20:42;4.97;;;3.50;;
77589;SDS011;66746;51.328;12.332;2023-06-01T03:23:09;4.18;;;3.35;;
77589;SDS011;66746;51.328;12.332;2023-06-01T03:25:35;5.32;;;3.90;;
77589;SDS011;66746;51.328;12.332;2023-06-01T03:28:03;6.22;;;3.95;;
77589;SDS011;66746;51.328;12.332;2023-06-01T03:30:29;5.35;;;3.92;;
77589;SDS011;66746;51.328;12.332;2023-06-01T03:32:56;5.75;;;5.00;;
77589;SDS011;66746;51.328;12.332;2023-06-01T03:35:22;8.63;;;4.63;;
77589;SDS011;66746;51.328;12.332;2023-06-01T03:37:49;5.30;;;4.13;;
77589;SDS011;66746;51.328;12.332;2023-06-01T03:40:18;5.82;;;4.32;;
77589;SDS011;66746;51.328;12.332;2023-06-01T03:42:45;8.70;;;3.58;;
77589;SDS011;66746;51.328;12.332;2023-06-01T03:45:14;8.73;;;5.43;;
77589;SDS011;66746;51.328;12.332;2023-06-01T03:47:41;4.38;;;3.95;;
77589;SDS011;66746;51.328;12.332;2023-06-01T03:50:08;5.57;;;3.60;;
77589;SDS011;66746;51.328;12.332;2023-06-01T03:52:36;5.53;;;3.03;;
77589;SDS011;66746;51.328;12.332;2023-06-01T03:55:03;6.65;;;4.28;;
77589;SDS011;66746;51.328;12.332;2023-06-01T03:57:57;6.13;;;4.45;;
77589;SDS011;66746;51.328;12.332;2023-06-01T04:00:25;4.70;;;2.72;;
77589;SDS011;66746;51.328;12.332;2023-06-01T04:02:53;7.25;;;4.38;;
77589;SDS011;66746;51.328;12.332;2023-06-01T04:05:21;6.35;;;4.10;;
77589;SDS011;66746;51.328;12.332;2023-06-01T04:07:49;6.25;;;4.53;;
77589;SDS011;66746;51.328;12.332;2023-06-01T04:10:16;5.03;;;4.13;;
77589;SDS011;66746;51.328;12.332;2023-06-01T04:12:44;6.35;;;5.75;;
77589;SDS011;66746;51.328;12.332;2023-06-01T04:15:11;5.78;;;5.18;;
77589;SDS011;66746;51.328;12.332;2023-06-01T04:17:41;7.65;;;4.50;;
77589;SDS011;66746;51.328;12.332;2023-06-01T04:20:08;8.40;;;5.13;;
77589;SDS011;66746;51.328;12.332;2023-06-01T04:22:35;5.63;;;4.93;;
77589;SDS011;66746;51.328;12.332;2023-06-01T04:25:05;5.38;;;4.55;;
77589;SDS011;66746;51.328;12.332;2023-06-01T04:27:31;7.25;;;4.72;;
77589;SDS011;66746;51.328;12.332;2023-06-01T04:29:59;5.80;;;3.83;;
77589;SDS011;66746;51.328;12.332;2023-06-01T04:32:27;5.65;;;5.00;;
77589;SDS011;66746;51.328;12.332;2023-06-01T04:34:55;6.75;;;4.30;;
77589;SDS011;66746;51.328;12.332;2023-06-01T04:37:21;5.97;;;4.47;;
77589;SDS011;66746;51.328;12.332;2023-06-01T04:39:48;5.82;;;4.50;;
77589;SDS011;66746;51.328;12.332;2023-06-01T04:42:14;6.25;;;4.15;;
77589;SDS011;66746;51.328;12.332;2023-06-01T04:44:44;6.53;;;5.07;;
77589;SDS011;66746;51.328;12.332;2023-06-01T04:47:10;8.35;;;4.72;;
77589;SDS011;66746;51.328;12.332;2023-06-01T04:49:37;7.97;;;5.20;;
77589;SDS011;66746;51.328;12.332;2023-06-01T04:52:06;5.68;;;4.65;;
77589;SDS011;66746;51.328;12.332;2023-06-01T04:54:36;7.72;;;4.50;;
77589;SDS011;66746;51.328;12.332;2023-06-01T04:57:03;6.68;;;4.10;;
77589;SDS011;66746;51.328;12.332;2023-06-01T04:59:29;8.68;;;4.35;;
77589;SDS011;66746;51.328;12.332;2023-06-01T05:01:58;9.20;;;5.68;;
77589;SDS011;66746;51.328;12.332;2023-06-01T05:04:25;9.32;;;6.55;;
77589;SDS011;66746;51.328;12.332;2023-06-01T05:06:52;7.20;;;5.80;;
77589;SDS011;66746;51.328;12.332;2023-06-01T05:09:20;7.50;;;4.85;;
77589;SDS011;66746;51.328;12.332;2023-06-01T05:11:46;9.70;;;5.78;;
77589;SDS011;66746;51.328;12.332;2023-06-01T05:14:13;9.70;;;5.75;;
77589;SDS011;66746;51.328;12.332;2023-06-01T05:16:40;8.07;;;5.90;;
77589;SDS011;66746;51.328;12.332;2023-06-01T05:19:07;9.98;;;5.47;;
77589;SDS011;66746;51.328;12.332;2023-06-01T05:21:34;10.75;;;4.80;;
77589;SDS011;66746;51.328;12.332;2023-06-01T05:24:00;11.00;;;6.22;;
77589;SDS011;66746;51.328;12.332;2023-06-01T05:26:31;10.18;;;5.95;;
77589;SDS011;66746;51.328;12.332;2023-06-01T05:28:57;11.60;;;6.28;;
77589;SDS011;66746;51.328;12.332;2023-06-01T05:31:24;8.63;;;5.80;;
77589;SDS011;66746;51.328;12.332;2023-06-01T05:33:54;11.60;;;6.55;;
77589;SDS011;66746;51.328;12.332;2023-06-01T05:36:27;10.45;;;6.85;;
77589;SDS011;66746;51.328;12.332;2023-06-01T05:38:54;10.57;;;6.97;;
77589;SDS011;66746;51.328;12.332;2023-06-01T05:41:22;10.88;;;6.68;;
77589;SDS011;66746;51.328;12.332;2023-06-01T05:43:49;10.40;;;6.45;;
77589;SDS011;66746;51.328;12.332;2023-06-01T05:46:20;8.20;;;6.63;;
77589;SDS011;66746;51.328;12.332;2023-06-01T05:48:46;11.30;;;6.53;;
77589;SDS011;66746;51.328;12.332;2023-06-01T05:51:14;9.20;;;5.57;;
77589;SDS011;66746;51.328;12.332;2023-06-01T05:53:44;7.75;;;6.50;;
77589;SDS011;66746;51.328;12.332;2023-06-01T05:56:12;8.00;;;6.90;;
77589;SDS011;66746;51.328;12.332;2023-06-01T05:58:41;9.52;;;6.78;;
77589;SDS011;66746;51.328;12.332;2023-06-01T06:01:13;7.90;;;6.60;;
77589;SDS011;66746;51.328;12.332;2023-06-01T06:03:39;12.45;;;6.18;;
77589;SDS011;66746;51.328;12.332;2023-06-01T06:06:11;8.98;;;7.35;;
77589;SDS011;66746;51.328;12.332;2023-06-01T06:08:45;10.10;;;6.53;;
77589;SDS011;66746;51.328;12.332;2023-06-01T06:11:20;8.75;;;6.07;;
77589;SDS011;66746;51.328;12.332;2023-06-01T06:13:47;11.70;;;6.57;;
77589;SDS011;66746;51.328;12.332;2023-06-01T06:16:15;8.43;;;6.55;;
77589;SDS011;66746;51.328;12.332;2023-06-01T06:18:42;10.35;;;7.10;;
77589;SDS011;66746;51.328;12.332;2023-06-01T06:21:11;8.02;;;5.82;;
77589;SDS011;66746;51.328;12.332;2023-06-01T06:23:38;11.07;;;6.90;;
77589;SDS011;66746;51.328;12.332;2023-06-01T06:26:04;9.30;;;6.53;;
77589;SDS011;66746;51.328;12.332;2023-06-01T06:28:31;14.93;;;8.13;;
77589;SDS011;66746;51.328;12.332;2023-06-01T06:30:57;9.07;;;6.53;;
77589;SDS011;66746;51.328;12.332;2023-06-01T06:33:28;9.27;;;6.20;;
77589;SDS011;66746;51.328;12.332;2023-06-01T06:35:55;10.38;;;8.35;;
77589;SDS011;66746;51.328;12.332;2023-06-01T06:38:21;9.00;;;7.22;;
77589;SDS011;66746;51.328;12.332;2023-06-01T06:40:48;8.52;;;6.60;;
77589;SDS011;66746;51.328;12.332;2023-06-01T06:43:14;12.32;;;7.07;;
77589;SDS011;66746;51.328;12.332;2023-06-01T06:45:41;12.30;;;7.25;;
77589;SDS011;66746;51.328;12.332;2023-06-01T06:48:07;9.02;;;6.00;;
77589;SDS011;66746;51.328;12.332;2023-06-01T06:50:35;8.98;;;7.30;;
77589;SDS011;66746;51.328;12.332;2023-06-01T06:53:02;8.93;;;7.15;;
77589;SDS011;66746;51.328;12.332;2023-06-01T06:55:28;11.63;;;8.48;;
77589;SDS011;66746;51.328;12.332;2023-06-01T06:57:55;11.07;;;9.35;;
77589;SDS011;66746;51.328;12.332;2023-06-01T07:00:21;10.85;;;8.10;;
77589;SDS011;66746;51.328;12.332;2023-06-01T07:02:48;11.63;;;8.23;;
77589;SDS011;66746;51.328;12.332;2023-06-01T07:05:15;10.45;;;9.10;;
77589;SDS011;66746;51.328;12.332;2023-06-01T07:07:43;10.52;;;8.13;;
77589;SDS011;66746;51.328;12.332;2023-06-01T07:10:10;12.88;;;9.13;;
77589;SDS011;66746;51.328;12.332;2023-06-01T07:12:36;11.35;;;9.10;;
77589;SDS011;66746;51.328;12.332;2023-06-01T07:15:03;9.75;;;8.02;;
77589;SDS011;66746;51.328;12.332;2023-06-01T07:17:30;12.38;;;8.95;;
77589;SDS011;66746;51.328;12.332;2023-06-01T07:19:56;10.77;;;9.18;;
77589;SDS011;66746;51.328;12.332;2023-06-01T07:22:23;10.68;;;8.55;;
77589;SDS011;66746;51.328;12.332;2023-06-01T07:24:50;12.88;;;9.70;;
77589;SDS011;66746;51.328;12.332;2023-06-01T07:27:17;18.38;;;9.43;;
77589;SDS011;66746;51.328;12.332;2023-06-01T07:29:45;13.55;;;9.07;;
77589;SDS011;66746;51.328;12.332;2023-06-01T07:32:12;12.85;;;10.00;;
77589;SDS011;66746;51.328;12.332;2023-06-01T07:34:38;15.50;;;10.60;;
77589;SDS011;66746;51.328;12.332;2023-06-01T07:40:31;14.43;;;10.77;;
77589;SDS011;66746;51.328;12.332;2023-06-01T07:43:26;12.07;;;9.25;;
77589;SDS011;66746;51.328;12.332;2023-06-01T07:46:44;12.80;;;10.45;;
77589;SDS011;66746;51.328;12.332;2023-06-01T07:49:52;13.27;;;9.25;;
77589;SDS011;66746;51.328;12.332;2023-06-01T07:56:15;13.77;;;10.23;;
77589;SDS011;66746;51.328;12.332;2023-06-01T07:59:14;13.20;;;9.13;;
77589;SDS011;66746;51.328;12.332;2023-06-01T08:08:51;11.60;;;8.10;;
77589;SDS011;66746;51.328;12.332;2023-06-01T08:14:28;14.98;;;9.98;;
77589;SDS011;66746;51.328;12.332;2023-06-01T08:17:09;18.05;;;10.60;;
77589;SDS011;66746;51.328;12.332;2023-06-01T08:19:53;19.50;;;11.55;;
77589;SDS011;66746;51.328;12.332;2023-06-01T08:25:35;14.32;;;10.13;;
77589;SDS011;66746;51.328;12.332;2023-06-01T08:37:17;15.57;;;10.45;;
77589;SDS011;66746;51.328;12.332;2023-06-01T08:40:14;17.80;;;10.82;;
77589;SDS011;66746;51.328;12.332;2023-06-01T08:42:42;14.13;;;9.50;;
77589;SDS011;66746;51.328;12.332;2023-06-01T08:45:11;14.82;;;9.77;;
77589;SDS011;66746;51.328;12.332;2023-06-01T08:47:41;14.77;;;9.73;;
77589;SDS011;66746;51.328;12.332;2023-06-01T08:50:15;16.10;;;11.95;;
77589;SDS011;66746;51.328;12.332;2023-06-01T08:52:46;16.75;;;11.90;;
77589;SDS011;66746;51.328;12.332;2023-06-01T08:55:16;18.50;;;12.00;;
77589;SDS011;66746;51.328;12.332;2023-06-01T08:57:45;19.80;;;12.60;;
77589;SDS011;66746;51.328;12.332;2023-06-01T09:00:22;20.08;;;13.90;;
77589;SDS011;66746;51.328;12.332;2023-06-01T09:05:50;23.25;;;14.88;;
77589;SDS011;66746;51.328;12.332;2023-06-01T09:08:17;20.92;;;15.40;;
77589;SDS011;66746;51.328;12.332;2023-06-01T09:10:44;21.77;;;15.05;;
77589;SDS011;66746;51.328;12.332;2023-06-01T09:13:10;22.08;;;15.27;;
77589;SDS011;66746;51.328;12.332;2023-06-01T09:15:49;19.40;;;14.23;;
77589;SDS011;66746;51.328;12.332;2023-06-01T09:18:16;20.63;;;15.20;;
77589;SDS011;66746;51.328;12.332;2023-06-01T09:20:43;23.63;;;16.70;;
77589;SDS011;66746;51.328;12.332;2023-06-01T09:23:09;20.98;;;16.35;;
77589;SDS011;66746;51.328;12.332;2023-06-01T09:25:37;19.65;;;16.20;;
77589;SDS011;66746;51.328;12.332;2023-06-01T09:28:04;22.92;;;17.52;;
77589;SDS011;66746;51.328;12.332;2023-06-01T09:30:37;21.98;;;17.30;;
77589;SDS011;66746;51.328;12.332;2023-06-01T09:33:07;23.73;;;16.73;;
77589;SDS011;66746;51.328;12.332;2023-06-01T09:35:39;23.20;;;16.98;;
77589;SDS011;66746;51.328;12.332;2023-06-01T09:38:06;19.98;;;15.25;;
77589;SDS011;66746;51.328;12.332;2023-06-01T09:40:33;20.38;;;16.63;;
77589;SDS011;66746;51.328;12.332;2023-06-01T09:43:01;21.88;;;16.05;;
77589;SDS011;66746;51.328;12.332;2023-06-01T09:45:27;21.23;;;17.25;;
77589;SDS011;66746;51.328;12.332;2023-06-01T09:48:14;21.27;;;15.95;;
77589;SDS011;66746;51.328;12.332;2023-06-01T09:50:41;23.45;;;16.80;;
77589;SDS011;66746;51.328;12.332;2023-06-01T09:53:08;21.20;;;16.30;;
77589;SDS011;66746;51.328;12.332;2023-06-01T09:55:34;19.83;;;16.23;;
77589;SDS011;66746;51.328;12.332;2023-06-01T09:58:18;20.38;;;16.40;;
77589;SDS011;66746;51.328;12.332;2023-06-01T10:00:45;16.52;;;14.48;;
77589;SDS011;66746;51.328;12.332;2023-06-01T10:03:13;19.40;;;15.10;;
77589;SDS011;66746;51.328;12.332;2023-06-01T10:05:41;16.70;;;14.70;;
77589;SDS011;66746;51.328;12.332;2023-06-01T10:08:08;20.52;;;13.77;;
77589;SDS011;66746;51.328;12.332;2023-06-01T10:10:36;17.58;;;12.98;;
77589;SDS011;66746;51.328;12.332;2023-06-01T10:13:05;14.20;;;11.05;;
77589;SDS011;66746;51.328;12.332;2023-06-01T10:15:36;17.85;;;12.75;;
77589;SDS011;66746;51.328;12.332;2023-06-01T10:18:02;14.80;;;11.05;;
77589;SDS011;66746;51.328;12.332;2023-06-01T10:20:31;12.90;;;11.00;;
77589;SDS011;66746;51.328;12.332;2023-06-01T10:22:57;13.00;;;10.43;;
77589;SDS011;66746;51.328;12.332;2023-06-01T10:25:28;14.32;;;9.68;;
77589;SDS011;66746;51.328;12.332;2023-06-01T10:27:57;12.95;;;11.43;;
77589;SDS011;66746;51.328;12.332;2023-06-01T10:30:24;15.90;;;11.52;;
77589;SDS011;66746;51.328;12.332;2023-06-01T10:32:52;15.13;;;12.45;;
77589;SDS011;66746;51.328;12.332;2023-06-01T10:38:24;14.60;;;12.05;;
77589;SDS011;66746;51.328;12.332;2023-06-01T10:40:51;17.00;;;13.00;;
77589;SDS011;66746;51.328;12.332;2023-06-01T10:46:05;15.55;;;13.13;;
77589;SDS011;66746;51.328;12.332;2023-06-01T10:48:53;16.23;;;13.55;;
77589;SDS011;66746;51.328;12.332;2023-06-01T10:51:21;17.13;;;12.90;;
77589;SDS011;66746;51.328;12.332;2023-06-01T10:53:48;18.30;;;14.02;;
77589;SDS011;66746;51.328;12.332;2023-06-01T10:56:17;15.85;;;12.32;;
77589;SDS011;66746;51.328;12.332;2023-06-01T10:58:44;17.73;;;13.88;;
77589;SDS011;66746;51.328;12.332;2023-06-01T11:01:17;15.55;;;12.38;;
77589;SDS011;66746;51.328;12.332;2023-06-01T11:03:46;18.52;;;14.35;;
77589;SDS011;66746;51.328;12.332;2023-06-01T11:06:24;15.35;;;13.15;;
77589;SDS011;66746;51.328;12.332;2023-06-01T11:08:58;16.42;;;14.68;;
77589;SDS011;66746;51.328;12.332;2023-06-01T11:11:56;16.48;;;13.32;;
77589;SDS011;66746;51.328;12.332;2023-06-01T11:14:26;15.45;;;11.80;;
77589;SDS011;66746;51.328;12.332;2023-06-01T11:16:53;18.33;;;14.50;;
77589;SDS011;66746;51.328;12.332;2023-06-01T11:19:21;18.00;;;13.70;;
77589;SDS011;66746;51.328;12.332;2023-06-01T11:21:54;17.55;;;12.80;;
77589;SDS011;66746;51.328;12.332;2023-06-01T11:24:21;18.48;;;14.38;;
77589;SDS011;66746;51.328;12.332;2023-06-01T11:26:49;18.65;;;14.95;;
77589;SDS011;66746;51.328;12.332;2023-06-01T11:29:17;17.92;;;14.07;;
77589;SDS011;66746;51.328;12.332;2023-06-01T11:31:53;17.75;;;14.52;;
77589;SDS011;66746;51.328;12.332;2023-06-01T11:34:29;19.58;;;14.25;;
77589;SDS011;66746;51.328;12.332;2023-06-01T11:37:06;21.50;;;14.65;;
77589;SDS011;66746;51.328;12.332;2023-06-01T11:39:38;19.42;;;15.60;;
77589;SDS011;66746;51.328;12.332;2023-06-01T11:42:08;17.42;;;13.68;;
77589;SDS011;66746;51.328;12.332;2023-06-01T11:44:35;18.52;;;14.10;;
77589;SDS011;66746;51.328;12.332;2023-06-01T11:47:02;22.20;;;14.45;;
77589;SDS011;66746;51.328;12.332;2023-06-01T11:49:28;21.17;;;14.57;;
77589;SDS011;66746;51.328;12.332;2023-06-01T11:51:55;17.00;;;13.98;;
77589;SDS011;66746;51.328;12.332;2023-06-01T11:54:23;20.90;;;14.10;;
77589;SDS011;66746;51.328;12.332;2023-06-01T11:56:50;17.55;;;14.00;;
77589;SDS011;66746;51.328;12.332;2023-06-01T11:59:17;19.80;;;14.65;;
77589;SDS011;66746;51.328;12.332;2023-06-01T12:01:44;17.23;;;13.73;;
77589;SDS011;66746;51.328;12.332;2023-06-01T12:04:13;17.35;;;12.68;;
77589;SDS011;66746;51.328;12.332;2023-06-01T12:09:06;18.13;;;11.60;;
77589;SDS011;66746;51.328;12.332;2023-06-01T12:11:35;17.30;;;12.65;;
77589;SDS011;66746;51.328;12.332;2023-06-01T12:14:01;14.75;;;11.35;;
77589;SDS011;66746;51.328;12.332;2023-06-01T12:19:10;17.90;;;11.65;;
77589;SDS011;66746;51.328;12.332;2023-06-01T12:21:36;14.48;;;11.32;;
77589;SDS011;66746;51.328;12.332;2023-06-01T12:24:03;17.02;;;11.27;;
77589;SDS011;66746;51.328;12.332;2023-06-01T12:26:36;15.90;;;11.32;;
77589;SDS011;66746;51.328;12.332;2023-06-01T12:29:02;15.13;;;12.23;;
77589;SDS011;66746;51.328;12.332;2023-06-01T12:31:29;15.50;;;10.75;;
77589;SDS011;66746;51.328;12.332;2023-06-01T12:33:55;14.32;;;11.38;;
77589;SDS011;66746;51.328;12.332;2023-06-01T12:36:29;13.18;;;11.35;;
77589;SDS011;66746;51.328;12.332;2023-06-01T12:38:55;13.25;;;11.75;;
77589;SDS011;66746;51.328;12.332;2023-06-01T12:41:23;15.35;;;10.70;;
77589;SDS011;66746;51.328;12.332;2023-06-01T12:43:51;14.13;;;9.32;;
77589;SDS011;66746;51.328;12.332;2023-06-01T12:46:17;13.80;;;10.18;;
77589;SDS011;66746;51.328;12.332;2023-06-01T12:48:44;13.93;;;10.48;;
77589;SDS011;66746;51.328;12.332;2023-06-01T12:51:11;10.63;;;8.88;;
77589;SDS011;66746;51.328;12.332;2023-06-01T12:53:37;10.88;;;9.30;;
77589;SDS011;66746;51.328;12.332;2023-06-01T12:56:04;13.00;;;10.23;;
77589;SDS011;66746;51.328;12.332;2023-06-01T12:58:30;10.52;;;8.38;;
77589;SDS011;66746;51.328;12.332;2023-06-01T13:00:58;11.27;;;8.18;;
77589;SDS011;66746;51.328;12.332;2023-06-01T13:03:25;10.00;;;8.90;;
77589;SDS011;66746;51.328;12.332;2023-06-01T13:05:52;10.70;;;8.90;;
77589;SDS011;66746;51.328;12.332;2023-06-01T13:08:18;9.50;;;7.90;;
77589;SDS011;66746;51.328;12.332;2023-06-01T13:10:44;11.32;;;8.85;;
77589;SDS011;66746;51.328;12.332;2023-06-01T13:13:11;12.38;;;9.90;;
77589;SDS011;66746;51.328;12.332;2023-06-01T13:15:41;10.40;;;9.27;;
77589;SDS011;66746;51.328;12.332;2023-06-01T13:18:09;12.07;;;9.30;;
77589;SDS011;66746;51.328;12.332;2023-06-01T13:20:36;12.35;;;10.57;;
77589;SDS011;66746;51.328;12.332;2023-06-01T13:23:02;18.85;;;9.88;;
77589;SDS011;66746;51.328;12.332;2023-06-01T13:25:29;13.43;;;10.85;;
77589;SDS011;66746;51.328;12.332;2023-06-01T13:27:55;13.15;;;11.48;;
77589;SDS011;66746;51.328;12.332;2023-06-01T13:30:22;12.82;;;10.48;;
77589;SDS011;66746;51.328;12.332;2023-06-01T13:32:49;12.60;;;10.05;;
77589;SDS011;66746;51.328;12.332;2023-06-01T13:35:16;13.32;;;10.35;;
77589;SDS011;66746;51.328;12.332;2023-06-01T13:37:43;15.15;;;11.68;;
77589;SDS011;66746;51.328;12.332;2023-06-01T13:40:09;16.08;;;10.70;;
77589;SDS011;66746;51.328;12.332;2023-06-01T13:42:36;14.27;;;10.48;;
77589;SDS011;66746;51.328;12.332;2023-06-01T13:45:02;15.05;;;11.13;;
77589;SDS011;66746;51.328;12.332;2023-06-01T13:47:29;12.88;;;9.60;;
77589;SDS011;66746;51.328;12.332;2023-06-01T13:49:55;13.70;;;9.43;;
77589;SDS011;66746;51.328;12.332;2023-06-01T13:52:23;13.27;;;9.80;;
77589;SDS011;66746;51.328;12.332;2023-06-01T13:54:49;11.02;;;8.50;;
77589;SDS011;66746;51.328;12.332;2023-06-01T13:57:16;13.63;;;8.90;;
77589;SDS011;66746;51.328;12.332;2023-06-01T13:59:42;13.38;;;9.00;;
77589;SDS011;66746;51.328;12.332;2023-06-01T14:02:08;12.85;;;8.32;;
77589;SDS011;66746;51.328;12.332;2023-06-01T14:04:35;9.00;;;7.65;;
77589;SDS011;66746;51.328;12.332;2023-06-01T14:07:01;9.25;;;8.32;;
77589;SDS011;66746;51.328;12.332;2023-06-01T14:09:29;9.23;;;7.63;;
77589;SDS011;66746;51.328;12.332;2023-06-01T14:11:55;8.55;;;7.47;;
77589;SDS011;66746;51.328;12.332;2023-06-01T14:14:22;16.80;;;7.35;;
77589;SDS011;66746;51.328;12.332;2023-06-01T14:16:48;8.80;;;7.82;;
77589;SDS011;66746;51.328;12.332;2023-06-01T14:19:14;9.57;;;7.45;;
77589;SDS011;66746;51.328;12.332;2023-06-01T14:21:41;12.52;;;8.13;;
77589;SDS011;66746;51.328;12.332;2023-06-01T14:24:08;11.65;;;8.20;;
77589;SDS011;66746;51.328;12.332;2023-06-01T14:26:35;9.23;;;7.30;;
77589;SDS011;66746;51.328;12.332;2023-06-01T14:29:01;10.57;;;9.05;;
77589;SDS011;66746;51.328;12.332;2023-06-01T14:31:28;9.80;;;7.10;;
77589;SDS011;66746;51.328;12.332;2023-06-01T14:33:55;11.30;;;8.85;;
77589;SDS011;66746;51.328;12.332;2023-06-01T14:36:21;9.73;;;7.75;;
77589;SDS011;66746;51.328;12.332;2023-06-01T14:39:00;9.48;;;7.20;;
77589;SDS011;66746;51.328;12.332;2023-06-01T14:41:26;12.63;;;8.55;;
77589;SDS011;66746;51.328;12.332;2023-06-01T14:43:54;8.88;;;7.97;;
77589;SDS011;66746;51.328;12.332;2023-06-01T14:46:20;9.45;;;7.25;;
77589;SDS011;66746;51.328;12.332;2023-06-01T14:48:47;8.93;;;7.32;;
77589;SDS011;66746;51.328;12.332;2023-06-01T14:51:13;10.13;;;7.55;;
77589;SDS011;66746;51.328;12.332;2023-06-01T14:53:40;10.30;;;6.63;;
77589;SDS011;66746;51.328;12.332;2023-06-01T14:56:06;9.07;;;6.88;;
77589;SDS011;66746;51.328;12.332;2023-06-01T14:58:32;13.15;;;6.85;;
77589;SDS011;66746;51.328;12.332;2023-06-01T15:01:00;10.82;;;7.03;;
77589;SDS011;66746;51.328;12.332;2023-06-01T15:03:27;10.18;;;7.63;;
77589;SDS011;66746;51.328;12.332;2023-06-01T15:05:53;11.75;;;7.63;;
77589;SDS011;66746;51.328;12.332;2023-06-01T15:08:20;9.82;;;7.65;;
77589;SDS011;66746;51.328;12.332;2023-06-01T15:10:46;10.55;;;7.20;;
77589;SDS011;66746;51.328;12.332;2023-06-01T15:13:13;8.93;;;7.00;;
77589;SDS011;66746;51.328;12.332;2023-06-01T15:15:39;8.13;;;6.18;;
77589;SDS011;66746;51.328;12.332;2023-06-01T15:18:06;15.00;;;6.07;;